Flight Track Log - Related Links

Times and Time Zones

All times are in EDT time to prevent confusion due to time zone crossing. See the N5208R flight status page for this flight to view local times or setup timezone preferences in your user account.

Time Position Orientation Groundspeed Altitude Reporting Facility
EDT Latitude Longitude Course Direction KTS MPH feet Rate Location/Type
Thu 06:12:12 PM 40.0769 -83.0467 85° East 84 97 1,500  Level Indianapolis Center
Thu 06:13:08 PM 40.0878 -83.0281 53° Northeast 72 83 2,100 559 Climbing Indianapolis Center
Thu 06:14:10 PM 40.1039 -83.0069 45° Northeast 75 86 2,600 484 Climbing Indianapolis Center
Thu 06:15:12 PM 40.1261 -83.0097 355° North 93 107 3,100 581 Climbing Indianapolis Center
Thu 06:16:14 PM 40.1439 -83.0442 304° West 96 110 3,800 435 Climbing Indianapolis Center
Thu 06:17:16 PM 40.1606 -83.0722 308° West 97 112 4,000 242 Climbing Indianapolis Center
Thu 06:18:18 PM 40.1817 -83.1092 307° West 111 128 4,300 393 Climbing Indianapolis Center
Thu 06:19:18 PM 40.2000 -83.1431 305° West 102 117 4,800 484 Climbing Indianapolis Center
Thu 06:20:22 PM 40.2181 -83.1717 310° West 108 124 5,300 476 Climbing Indianapolis Center
Thu 06:21:24 PM 40.2344 -83.1989 308° West 98 113 5,800 532 Climbing Indianapolis Center
Thu 06:22:26 PM 40.2508 -83.2272 307° West 97 112 6,400 532 Climbing Indianapolis Center
Thu 06:23:28 PM 40.2689 -83.2586 307° West 93 107 6,900 435 Climbing Indianapolis Center
Thu 06:24:30 PM 40.2847 -83.2858 307° West 93 107 7,300 339 Climbing Indianapolis Center
Thu 06:25:32 PM 40.3011 -83.3144 307° West 96 110 7,600 339 Climbing Indianapolis Center
Thu 06:26:34 PM 40.3172 -83.3428 307° West 97 112 8,000 194 Climbing Indianapolis Center
Thu 06:27:36 PM 40.3367 -83.3739 309° West 107 123 8,000 -48 Level Indianapolis Center
Thu 06:28:38 PM 40.3564 -83.4097 306° West 118 136 7,900 -48 Descending Indianapolis Center
Thu 06:29:40 PM 40.3800 -83.4519 306° West 121 139 7,900  Level Indianapolis Center
Thu 06:30:42 PM 40.4011 -83.4872 308° West 122 140 7,900  Level Indianapolis Center
Thu 06:31:44 PM 40.4217 -83.5217 308° West 120 138 7,900  Level Indianapolis Center
Thu 06:32:46 PM 40.4422 -83.5581 307° West 122 140 7,900  Level Indianapolis Center
Thu 06:33:48 PM 40.4622 -83.5942 306° West 122 140 7,900  Level Indianapolis Center
Thu 06:34:50 PM 40.4836 -83.6294 309° West 123 142 7,900  Level Indianapolis Center
Thu 06:35:52 PM 40.5036 -83.6656 306° West 122 140 7,900  Level Indianapolis Center
Thu 06:36:54 PM 40.5283 -83.7078 308° West 124 143 7,900  Level Indianapolis Center
Thu 06:37:56 PM 40.5489 -83.7431 307° West 122 140 7,900  Level Indianapolis Center
Thu 06:38:58 PM 40.5689 -83.7794 306° West 122 140 7,900  Level Indianapolis Center
Thu 06:40:00 PM 40.5897 -83.8158 307° West 123 142 7,900  Level Indianapolis Center
Thu 06:41:03 PM 40.6097 -83.8517 306° West 122 140 7,900  Level Indianapolis Center
Thu 06:42:05 PM 40.6303 -83.8881 307° West 122 140 7,900  Level Indianapolis Center
Thu 06:43:07 PM 40.6511 -83.9228 308° West 121 139 7,900  Level Indianapolis Center
Thu 06:44:09 PM 40.6744 -83.9658 306° West 121 139 7,900  Level Indianapolis Center
Thu 06:45:11 PM 40.6953 -84.0000 309° West 120 138 7,900  Level Indianapolis Center
Thu 06:46:13 PM 40.7147 -84.0353 306° West 119 137 7,900  Level Indianapolis Center
Thu 06:47:15 PM 40.7356 -84.0706 308° West 119 137 7,900  Level Indianapolis Center
Thu 06:48:17 PM 40.7547 -84.1069 305° West 120 138 7,900  Level Indianapolis Center
Thu 06:49:19 PM 40.7742 -84.1414 307° West 118 136 7,900  Level Indianapolis Center
Thu 06:50:21 PM 40.7792 -84.1833 279° West 114 131 7,900  Level Indianapolis Center
Thu 06:51:23 PM 40.7872 -84.2303 283° West 113 130 7,900  Level Indianapolis Center
Thu 06:52:25 PM 40.7942 -84.2717 283° West 113 130 7,900  Level Indianapolis Center
Thu 06:53:27 PM 40.8008 -84.3136 282° West 116 133 7,900  Level Indianapolis Center
Thu 06:54:29 PM 40.8075 -84.3558 282° West 118 136 7,900  Level Indianapolis Center
Thu 06:55:31 PM 40.8136 -84.3994 281° West 118 136 7,900  Level Indianapolis Center
Thu 06:56:33 PM 40.8200 -84.4433 281° West 120 138 7,900 -97 Level Indianapolis Center
Thu 06:57:35 PM 40.8278 -84.4861 284° West 119 137 7,700 -387 Descending Indianapolis Center
Thu 06:58:37 PM 40.8364 -84.5439 281° West 128 147 7,100 -581 Descending Indianapolis Center
Thu 06:59:39 PM 40.8458 -84.5967 283° West 137 158 6,500 -532 Descending Indianapolis Center
Thu 07:00:41 PM 40.8539 -84.6508 281° West 141 162 6,000 -367 Descending Indianapolis Center
Thu 07:01:17 PM 40.8583 -84.6819 281° West 144 166 5,900 -61 Descending Chicago Center
Thu 07:02:19 PM 40.8644 -84.7300 280° West 140 161 5,900  Level Chicago Center
Thu 07:03:21 PM 40.8719 -84.7744 283° West 133 153 5,900  Level Chicago Center
Thu 07:04:23 PM 40.8797 -84.8206 283° West 130 150 5,900  Level Chicago Center
Thu 07:05:25 PM 40.8861 -84.8664 280° West 129 148 5,900  Level Chicago Center
Thu 07:06:27 PM 40.8931 -84.9142 281° West 130 150 5,900  Level Chicago Center
Thu 07:07:30 PM 40.9031 -84.9683 284° West 129 148 5,900  Level Chicago Center
Thu 07:08:32 PM 40.9097 -85.0164 280° West 131 151 5,900  Level Chicago Center
Thu 07:09:34 PM 40.9164 -85.0656 280° West 132 152 5,900  Level Chicago Center
Thu 07:10:36 PM 40.9231 -85.1125 281° West 132 152 5,900  Level Chicago Center
Thu 07:11:38 PM 40.9303 -85.1586 282° West 130 150 5,900  Level Chicago Center
Thu 07:12:40 PM 40.9378 -85.2064 282° West 131 151 5,900  Level Chicago Center
Thu 07:13:42 PM 40.9458 -85.2633 281° West 131 151 5,900  Level Chicago Center
Thu 07:14:44 PM 40.9528 -85.3094 281° West 130 150 5,900  Level Chicago Center
Thu 07:15:46 PM 40.9594 -85.3558 281° West 129 148 5,900  Level Chicago Center
Thu 07:16:48 PM 40.9661 -85.4022 281° West 128 147 5,900  Level Chicago Center
Thu 07:17:51 PM 40.9731 -85.4483 281° West 127 146 5,900  Level Chicago Center
Thu 07:18:53 PM 40.9811 -85.5039 281° West 129 148 5,900  Level Chicago Center
Thu 07:19:55 PM 40.9875 -85.5497 280° West 128 147 5,900  Level Chicago Center
Thu 07:20:57 PM 40.9947 -85.5972 281° West 130 150 5,900  Level Chicago Center
Thu 07:21:59 PM 41.0011 -85.6439 280° West 130 150 5,900  Level Chicago Center
Thu 07:23:01 PM 41.0092 -85.6917 283° West 131 151 5,900  Level Chicago Center
Thu 07:24:03 PM 41.0150 -85.7397 279° West 132 152 5,900  Level Chicago Center
Thu 07:25:05 PM 41.0222 -85.7897 281° West 134 154 5,900  Level Chicago Center
Thu 07:26:07 PM 41.0314 -85.8500 281° West 137 158 5,900  Level Chicago Center
Thu 07:27:09 PM 41.0389 -85.8997 281° West 138 159 5,900  Level Chicago Center
Thu 07:28:11 PM 41.0458 -85.9492 281° West 135 155 5,900  Level Chicago Center
Thu 07:29:14 PM 41.0531 -85.9986 281° West 137 158 5,900 48 Level Chicago Center
Thu 07:30:16 PM 41.0586 -86.0489 278° West 137 158 6,000 48 Climbing Chicago Center
Thu 07:31:18 PM 41.0653 -86.0953 281° West 134 154 6,000  Level Chicago Center
Thu 07:32:20 PM 41.0744 -86.1536 282° West 133 153 6,000  Level Chicago Center
Thu 07:33:22 PM 41.0806 -86.2003 280° West 130 150 6,000  Level Chicago Center
Thu 07:34:24 PM 41.0872 -86.2458 281° West 127 146 6,000  Level Chicago Center
Thu 07:35:26 PM 41.0936 -86.2922 280° West 128 147 6,000  Level Chicago Center
Thu 07:36:28 PM 41.1003 -86.3389 281° West 129 148 6,000  Level Chicago Center
Thu 07:37:30 PM 41.1086 -86.3947 281° West 129 148 6,000  Level Chicago Center
Thu 07:38:32 PM 41.1153 -86.4419 281° West 130 150 6,000  Level Chicago Center
Thu 07:39:34 PM 41.1219 -86.4894 281° West 130 150 6,000  Level Chicago Center
Thu 07:40:37 PM 41.1283 -86.5367 280° West 131 151 6,000  Level Chicago Center
Thu 07:41:39 PM 41.1344 -86.5842 280° West 129 148 6,000  Level Chicago Center
Thu 07:42:41 PM 41.1392 -86.6292 278° West 128 147 6,000  Level Chicago Center
Thu 07:43:43 PM 41.1461 -86.6839 280° West 126 145 6,000  Level Chicago Center
Thu 07:44:45 PM 41.1544 -86.7311 283° West 127 146 6,000  Level Chicago Center
Thu 07:45:47 PM 41.1633 -86.7753 285° West 127 146 6,000  Level Chicago Center
Thu 07:46:49 PM 41.1678 -86.8222 277° West 127 146 6,000  Level Chicago Center
Thu 07:47:51 PM 41.1736 -86.8686 279° West 128 147 6,000  Level Chicago Center
Thu 07:48:53 PM 41.1806 -86.9236 280° West 127 146 6,000  Level Chicago Center
Thu 07:49:55 PM 41.1875 -86.9697 281° West 128 147 6,000  Level Chicago Center
Thu 07:50:57 PM 41.1947 -87.0172 281° West 129 148 6,000  Level Chicago Center
Thu 07:51:59 PM 41.2006 -87.0639 279° West 130 150 6,000  Level Chicago Center
Thu 07:53:01 PM 41.2067 -87.1108 280° West 130 150 6,000  Level Chicago Center
Thu 07:54:04 PM 41.2133 -87.1672 279° West 130 150 6,000  Level Chicago Center
Thu 07:55:06 PM 41.2203 -87.2136 281° West 128 147 6,000  Level Chicago Center
Thu 07:56:08 PM 41.2261 -87.2619 279° West 131 151 6,000  Level Chicago Center
Thu 07:57:10 PM 41.2322 -87.3089 280° West 131 151 6,000  Level Chicago Center
Thu 07:58:12 PM 41.2389 -87.3569 280° West 132 152 6,000  Level Chicago Center
Thu 07:59:14 PM 41.2444 -87.4039 279° West 130 150 6,000  Level Chicago Center
Thu 08:00:16 PM 41.2519 -87.4611 280° West 131 151 6,000  Level Chicago Center
Thu 08:01:18 PM 41.2581 -87.5083 280° West 130 150 6,000  Level Chicago Center
Thu 08:02:20 PM 41.2642 -87.5544 280° West 129 148 6,000  Level Chicago Center
Thu 08:03:22 PM 41.2706 -87.6014 280° West 129 148 6,000  Level Chicago Center
Thu 08:04:24 PM 41.2769 -87.6486 280° West 130 150 6,000  Level Chicago Center
Thu 08:05:27 PM 41.2836 -87.7036 279° West 128 147 6,000  Level Chicago Center
Thu 08:06:29 PM 41.2897 -87.7506 280° West 128 147 6,000  Level Chicago Center
Thu 08:07:31 PM 41.2953 -87.7967 279° West 128 147 6,000  Level Chicago Center
Thu 08:08:33 PM 41.3008 -87.8417 279° West 126 145 6,000  Level Chicago Center
Thu 08:09:35 PM 41.3069 -87.8881 280° West 126 145 6,000  Level Chicago Center
Thu 08:10:37 PM 41.3142 -87.9431 280° West 126 145 6,000  Level Chicago Center
Thu 08:11:39 PM 41.3197 -87.9889 279° West 126 145 6,000  Level Chicago Center
Thu 08:12:41 PM 41.3256 -88.0344 280° West 125 144 6,000  Level Chicago Center
Thu 08:13:43 PM 41.3311 -88.0797 279° West 124 143 6,000  Level Chicago Center
Thu 08:14:45 PM 41.3358 -88.1258 278° West 125 144 6,000  Level Chicago Center
Thu 08:15:47 PM 41.3414 -88.1717 279° West 125 144 6,000  Level Chicago Center
Thu 08:16:50 PM 41.3475 -88.2172 280° West 125 144 6,000  Level Chicago Center
Thu 08:17:52 PM 41.3536 -88.2722 278° West 126 145 6,000  Level Chicago Center
Thu 08:18:54 PM 41.3592 -88.3183 279° West 126 145 6,000  Level Chicago Center
Thu 08:19:56 PM 41.3647 -88.3639 279° West 126 145 6,000  Level Chicago Center
Thu 08:21:00 PM 41.3702 -88.4126 279° West  Level FlightAware Approximate
Thu 08:22:00 PM 41.3758 -88.4553 279° West 127 146 6,000  Level Chicago Center
Thu 08:23:02 PM 41.3822 -88.5083 279° West 123 142 6,000  Level Chicago Center
Thu 08:24:04 PM 41.3872 -88.5519 279° West 121 139 6,000  Level Chicago Center
Thu 08:25:06 PM 41.3928 -88.5975 279° West 124 143 6,000  Level Chicago Center
Thu 08:26:08 PM 41.3981 -88.6419 279° West 123 142 6,000  Level Chicago Center
Thu 08:27:11 PM 41.4033 -88.6881 279° West 124 143 6,000  Level Chicago Center
Thu 08:28:13 PM 41.4236 -88.7283 304° West 140 161 6,000  Level Chicago Center
Thu 08:29:15 PM 41.4603 -88.7403 346° North 136 157 6,000  Level Chicago Center
Thu 08:30:17 PM 41.4950 -88.7494 349° North 131 151 6,000  Level Chicago Center
Thu 08:31:19 PM 41.5308 -88.7561 352° North 130 150 6,000  Level Chicago Center
Thu 08:32:21 PM 41.5667 -88.7661 348° North 131 151 6,000  Level Chicago Center
Thu 08:33:23 PM 41.6022 -88.7742 350° North 131 151 6,000  Level Chicago Center
Thu 08:34:25 PM 41.6444 -88.7847 349° North 129 148 6,000  Level Chicago Center
Thu 08:35:27 PM 41.6806 -88.7911 352° North 131 151 6,000  Level Chicago Center
Thu 08:36:29 PM 41.7183 -88.7981 352° North 136 157 6,000  Level Chicago Center
Thu 08:37:31 PM 41.7556 -88.8056 351° North 135 155 6,000  Level Chicago Center
Thu 08:38:33 PM 41.7922 -88.8128 352° North 133 153 6,000  Level Chicago Center
Thu 08:39:36 PM 41.8361 -88.8250 348° North 135 155 6,000  Level Chicago Center
Thu 08:40:38 PM 41.8736 -88.8356 348° North 137 158 6,000  Level Chicago Center
Thu 08:41:40 PM 41.9125 -88.8375 358° North 141 162 6,000  Level Chicago Center
Thu 08:42:42 PM 41.9486 -88.8431 353° North 134 154 6,000  Level Chicago Center
Thu 08:43:44 PM 41.9867 -88.8436 359° North 136 157 6,000 -145 Level Chicago Center
Thu 08:44:46 PM 42.0328 -88.8478 356° North 138 159 5,700 -387 Descending Chicago Center
Thu 08:45:48 PM 42.0717 -88.8428 North 146 168 5,200 -387 Descending Chicago Center
Thu 08:46:50 PM 42.1136 -88.8342 North 152 175 4,900 -145 Descending Chicago Center
Thu 08:47:52 PM 42.1528 -88.8311 North 138 159 4,900  Level Chicago Center
Thu 08:48:54 PM 42.1897 -88.8267 North 134 154 4,900  Level Chicago Center
Thu 08:49:56 PM 42.2258 -88.8247 North 132 152 4,900  Level Chicago Center
Thu 08:50:58 PM 42.2700 -88.8206 North 133 153 4,900  Level Chicago Center
Thu 08:52:01 PM 42.3075 -88.8147 North 135 155 4,900  Level Chicago Center
Thu 08:53:03 PM 42.3433 -88.8111 North 136 157 4,900  Level Chicago Center
Thu 08:54:05 PM 42.3858 -88.8086 North 132 152 4,900  Level Chicago Center
Thu 08:55:07 PM 42.4228 -88.8031 North 133 153 4,900  Level Chicago Center
Thu 08:56:09 PM 42.4606 -88.7975 North 135 155 4,900  Level Chicago Center
Thu 08:57:11 PM 42.4967 -88.7958 North 131 151 4,900  Level Chicago Center
Thu 08:58:13 PM 42.5342 -88.7908 North 133 153 4,900  Level Chicago Center
Thu 08:59:15 PM 42.5764 -88.7869 North 131 151 4,900  Level Chicago Center
Thu 09:00:17 PM 42.6139 -88.7814 North 134 154 4,900  Level Chicago Center
Thu 09:01:20 PM 42.6503 -88.7803 North 132 152 4,900  Level Chicago Center
Thu 09:02:22 PM 42.6869 -88.7736 North 132 152 4,900  Level Chicago Center
Thu 09:03:24 PM 42.7242 -88.7706 North 133 153 4,900  Level Chicago Center
Thu 09:04:26 PM 42.7656 -88.7814 349° North 131 151 4,900  Level Chicago Center
Thu 09:05:28 PM 42.8014 -88.7997 339° North 134 154 4,900  Level Chicago Center
Thu 09:06:30 PM 42.8367 -88.8161 341° North 134 154 4,900  Level Chicago Center
Thu 09:07:32 PM 42.8725 -88.8322 342° North 134 154 4,900  Level Chicago Center
Thu 09:08:34 PM 42.9081 -88.8483 342° North 135 155 4,900 -48 Level Chicago Center
Thu 09:09:36 PM 42.9442 -88.8636 343° North 135 155 4,800 -435 Descending Chicago Center
Thu 09:10:38 PM 42.9894 -88.8875 339° North 142 163 4,000 -823 Descending Chicago Center
Thu 09:11:40 PM 43.0231 -88.9281 319° Northwest 154 177 3,100 -576 Descending Chicago Center
Thu 09:12:43 PM 43.0575 -88.9275 North 143 165 2,800 -288 Descending Chicago Center
Thu 09:13:45 PM 43.0783 -88.8889 54° Northeast 131 151 2,500 -194 Descending Chicago Center
Thu 09:14:47 PM 43.0975 -88.8542 53° Northeast 122 140 2,400 -48 Descending Chicago Center
Thu 09:15:49 PM 43.1158 -88.8203 53° Northeast 106 122 2,400  Level Chicago Center
Thu 09:16:51 PM 43.1303 -88.7928 54° Northeast 104 120 2,400  Level Chicago Center

Login

Don't have an account? Register now (free) for customized features, flight alerts, and more!